»·PEaware :: N1920F KSAC-KWVI

N1920F :: KSAC-KWVI

FLIGHT INFORMATION

Flight Status: Arrived
Operator: Privately registered:
United States
More flights under this callsign
Pilot: Timothy S. (27694)
Aircraft: CESSNA 172 SKYHAWK
(C172)
More flights by this aircraft type
Origin: KSAC Sacramento Executive
United States
Destination: KWVI Watsonville Mun
United States
More flights between these airports :: More routes between these airports
Route:
File this flight plan on PilotEdge
Remarks:
Altitude:
(Current/Filed)
6,500ft
Speed:
(Current/Filed)
0kts
Departed: 21-Feb-21 09:25 PM
Arrived: 21-Feb-21 10:21 PM
Distance/Time
Traveled:
6848nm/0:55
Distance/Time
To Go:
Arrived

Flight Plot

Page will automatically refresh every two minutes.

Flight plan parsing failed; only flown route is shown


Map Options




Map Legend


Flown Route
Filed Route
Departure Airport
Arrival Airport
Navaid (VOR, NDB)
Fix

Horizontal Profiles

Position Reports

Time Latitude Longitude Heading Altitude Ground
Speed
21-Feb-21 21:18 38.513181 -121.497161 29 23ft 0kts
21-Feb-21 21:19 38.513181 -121.497161 29 23ft 0kts
21-Feb-21 21:20 38.513712 -121.495348 32 23ft 11kts
21-Feb-21 21:21 38.517568 -121.492151 33 28ft 18kts
21-Feb-21 21:22 38.519193 -121.490361 99 28ft 0kts
21-Feb-21 21:23 38.519034 -121.489604 118 27ft 15kts
21-Feb-21 21:24 38.506617 -121.499425 205 449ft 77kts
21-Feb-21 21:25 38.482633 -121.499911 167 1185ft 96kts
21-Feb-21 21:26 38.457823 -121.498226 184 2079ft 89kts
21-Feb-21 21:27 38.432783 -121.499879 189 2768ft 102kts
21-Feb-21 21:28 38.405392 -121.507176 189 3519ft 101kts
21-Feb-21 21:29 38.377699 -121.509814 175 4219ft 102kts
21-Feb-21 21:30 38.348669 -121.506179 176 4851ft 105kts
21-Feb-21 21:31 38.318563 -121.508201 186 5421ft 110kts
21-Feb-21 21:32 38.289739 -121.518188 196 6039ft 104kts
21-Feb-21 21:33 38.260080 -121.523329 182 6561ft 111kts
21-Feb-21 21:34 38.229377 -121.524988 179 6844ft 110kts
21-Feb-21 21:35 38.195893 -121.527068 182 6676ft 139kts
21-Feb-21 21:36 38.159888 -121.526076 179 6701ft 131kts
21-Feb-21 21:37 38.123651 -121.526582 179 6608ft 128kts
21-Feb-21 21:38 38.089174 -121.526118 180 6615ft 120kts
21-Feb-21 21:39 38.055920 -121.526134 177 6687ft 118kts
21-Feb-21 21:40 38.023623 -121.527898 180 6833ft 115kts
21-Feb-21 21:41 37.991830 -121.523593 161 6952ft 113kts
21-Feb-21 21:42 37.959292 -121.512659 170 6816ft 126kts
21-Feb-21 21:43 37.923902 -121.511145 182 6625ft 131kts
21-Feb-21 21:44 37.888719 -121.518959 199 6567ft 119kts
21-Feb-21 21:45 37.858212 -121.536225 208 6622ft 115kts
21-Feb-21 21:46 37.827475 -121.549196 190 6639ft 125kts
21-Feb-21 21:47 37.792741 -121.555833 189 6474ft 133kts
21-Feb-21 21:48 37.758142 -121.560005 182 6556ft 122kts
21-Feb-21 21:49 37.723748 -121.561796 181 6603ft 119kts
21-Feb-21 21:50 37.690614 -121.563232 181 6656ft 125kts
21-Feb-21 21:51 37.656376 -121.562727 178 6714ft 124kts
21-Feb-21 21:52 37.621456 -121.560972 172 6702ft 123kts
21-Feb-21 21:53 37.586657 -121.555834 179 6607ft 131kts
21-Feb-21 21:54 37.551843 -121.556151 180 6625ft 126kts
21-Feb-21 21:55 37.515760 -121.554584 171 6532ft 124kts
21-Feb-21 21:56 37.481257 -121.552550 184 6661ft 119kts
21-Feb-21 21:57 37.447560 -121.557683 188 6582ft 120kts
21-Feb-21 21:58 37.413936 -121.563846 185 6616ft 118kts
21-Feb-21 21:59 37.381223 -121.566514 182 6683ft 123kts
21-Feb-21 22:00 37.345888 -121.567403 178 6535ft 127kts
21-Feb-21 22:01 37.311377 -121.566286 182 6629ft 118kts
21-Feb-21 22:02 37.276546 -121.571001 188 6436ft 134kts
21-Feb-21 22:03 37.241594 -121.574442 180 6455ft 115kts
21-Feb-21 22:04 37.207321 -121.575664 180 6319ft 129kts
21-Feb-21 22:05 37.173855 -121.576255 180 6338ft 123kts
21-Feb-21 22:06 37.138446 -121.576191 175 6205ft 122kts
21-Feb-21 22:07 37.104213 -121.577189 183 6148ft 124kts
21-Feb-21 22:08 37.069749 -121.586975 203 5762ft 132kts
21-Feb-21 22:09 37.039228 -121.610265 222 5181ft 131kts
21-Feb-21 22:10 37.012525 -121.640522 229 4667ft 107kts
21-Feb-21 22:11 36.984239 -121.666446 209 3838ft 141kts
21-Feb-21 22:12 36.949140 -121.684902 199 2777ft 129kts
21-Feb-21 22:13 36.916640 -121.698767 201 1874ft 124kts
21-Feb-21 22:14 36.892433 -121.723245 241 1396ft 111kts
21-Feb-21 22:15 36.883458 -121.758541 298 1104ft 100kts
21-Feb-21 22:16 36.906994 -121.775542 344 1135ft 99kts
21-Feb-21 22:17 36.932372 -121.770280 37 1078ft 105kts
21-Feb-21 22:18 36.951237 -121.764244 297 892ft 75kts
21-Feb-21 22:19 36.945200 -121.783104 215 460ft 77kts
21-Feb-21 22:20 36.933787 -121.791141 125 152ft 0kts
21-Feb-21 22:21 36.933317 -121.790160 98 149ft 13kts
21-Feb-21 22:22 36.935100 -121.789805 33 157ft 16kts
21-Feb-21 22:23 36.935005 -121.786754 307 148ft 12kts
21-Feb-21 22:24 36.935591 -121.788721 283 155ft 0kts
21-Feb-21 22:25 36.935591 -121.788721 283 155ft 0kts
21-Feb-21 22:26 36.935591 -121.788721 283 155ft 0kts
21-Feb-21 22:27 0.000000 0.000000 0 0ft 0kts

Navigation Log

Ident Type
Flight plan parsing failed, navigation log unavailable